Time;durP1;ratioP1;P1;durP2;ratioP2;P2;SDS_P1;SDS_P2;PMS_P1;PMS_P2;Temp;Humidity;BMP_temperature;BMP_pressure;BME280_temperature;BME280_humidity;BME280_pressure;Samples;Min_cycle;Max_cycle;Signal;HPM_P1;HPM_P2
2022/06/27 00:04:07;;;;;;;2.78;1.20;;;;;;;;;;5019917;28;20029;-59
2022/06/27 00:06:58;;;;;;;1.45;0.75;;;;;;;;;;5036943;28;20107;-58
2022/06/27 00:10:06;;;;;;;1.23;0.65;;;;;;;;;;5023640;28;20025;-59
2022/06/27 00:13:07;;;;;;;1.95;0.75;;;;;;;;;;5028874;28;20036;-58
2022/06/27 00:15:55;;;;;;;1.27;0.70;;;;;;;;;;4976126;28;20034;-58
2022/06/27 00:18:34;;;;;;;1.25;0.60;;;;;;;;;;4967297;28;20234;-59
2022/06/27 00:24:32;;;;;;;1.08;0.55;;;;;;;;;;4975106;28;20540;-58
2022/06/27 00:27:27;;;;;;;1.08;0.38;;;;;;;;;;4960368;28;20532;-59
2022/06/27 00:33:07;;;;;;;;;;;;;;;;;;;;;
2022/06/27 00:35:50;;;;;;;1.83;0.52;;;;;;;;;;5015731;28;20085;-59
2022/06/27 00:38:33;;;;;;;3.47;1.45;;;;;;;;;;5015465;28;20033;-58
2022/06/27 00:41:23;;;;;;;1.38;0.80;;;;;;;;;;5038692;28;20052;-59
2022/06/27 00:43:55;;;;;;;2.90;1.08;;;;;;;;;;5007218;28;20034;-59
2022/06/27 00:49:31;;;;;;;3.38;0.60;;;;;;;;;;5036702;28;20522;-59
2022/06/27 00:52:34;;;;;;;2.57;0.80;;;;;;;;;;5042408;28;20034;-58
2022/06/27 00:55:01;;;;;;;1.58;0.65;;;;;;;;;;5047702;28;20263;-57
2022/06/27 00:57:54;;;;;;;0.57;0.30;;;;;;;;;;5047961;28;20030;-58
2022/06/27 01:00:49;;;;;;;2.35;0.52;;;;;;;;;;5048214;28;20033;-58
2022/06/27 01:06:29;;;;;;;0.38;0.25;;;;;;;;;;5048646;28;20044;-58
2022/06/27 01:09:11;;;;;;;1.23;0.65;;;;;;;;;;5047616;28;20026;-57
2022/06/27 01:11:53;;;;;;;2.05;0.50;;;;;;;;;;5048102;28;20097;-57
2022/06/27 01:14:37;;;;;;;1.08;0.73;;;;;;;;;;5047837;28;20025;-57
2022/06/27 01:20:20;;;;;;;1.92;0.68;;;;;;;;;;5006768;28;20049;-57
2022/06/27 01:23:18;;;;;;;1.15;0.70;;;;;;;;;;5006612;28;20030;-58
2022/06/27 01:28:49;;;;;;;2.47;0.90;;;;;;;;;;5011366;28;20030;-58
2022/06/27 01:31:33;;;;;;;4.78;0.88;;;;;;;;;;5027283;28;20045;-57
2022/06/27 01:34:18;;;;;;;1.35;0.57;;;;;;;;;;5009223;28;20030;-57
2022/06/27 01:37:06;;;;;;;3.13;1.15;;;;;;;;;;5027425;28;20085;-58
2022/06/27 01:40:02;;;;;;;3.28;1.55;;;;;;;;;;5010251;28;20475;-57
2022/06/27 01:42:50;;;;;;;1.80;0.93;;;;;;;;;;5026427;28;20025;-57
2022/06/27 01:48:22;;;;;;;2.03;1.30;;;;;;;;;;5027396;28;20037;-58
2022/06/27 01:51:23;;;;;;;2.88;1.85;;;;;;;;;;5028298;28;20290;-58
2022/06/27 01:57:11;;;;;;;2.97;1.73;;;;;;;;;;5025098;28;20054;-58
2022/06/27 02:00:01;;;;;;;3.63;1.58;;;;;;;;;;5026584;28;20056;-58
2022/06/27 02:02:58;;;;;;;4.57;2.00;;;;;;;;;;4999978;28;20387;-58
2022/06/27 02:05:41;;;;;;;3.53;1.50;;;;;;;;;;5019858;28;20379;-55
2022/06/27 02:08:20;;;;;;;3.30;1.50;;;;;;;;;;5027803;28;20026;-58
2022/06/27 02:10:59;;;;;;;2.35;0.80;;;;;;;;;;5027838;28;20531;-58
2022/06/27 02:13:35;;;;;;;1.42;0.88;;;;;;;;;;5005967;28;20042;-58
2022/06/27 02:25:27;;;;;;;2.15;1.13;;;;;;;;;;4964033;28;20039;-58
2022/06/27 02:27:54;;;;;;;3.05;1.38;;;;;;;;;;5020948;28;20054;-58
2022/06/27 02:30:34;;;;;;;2.78;1.25;;;;;;;;;;5024796;28;20095;-58
2022/06/27 02:33:04;;;;;;;1.98;1.00;;;;;;;;;;5024948;28;20117;-58
2022/06/27 02:35:45;;;;;;;3.00;1.27;;;;;;;;;;5041259;28;20064;-58
2022/06/27 02:39:24;;;;;;;2.47;1.45;;;;;;;;;;5024697;28;20042;-58
2022/06/27 02:41:54;;;;;;;;;;;;;;;;;;;;;
2022/06/27 02:47:44;;;;;;;3.58;1.55;;;;;;;;;;5004329;28;20042;-58
2022/06/27 02:53:58;;;;;;;4.95;1.27;;;;;;;;;;5024363;28;20053;-58
2022/06/27 02:56:42;;;;;;;2.90;1.40;;;;;;;;;;5021530;28;20038;-58
2022/06/27 02:59:33;;;;;;;2.15;1.23;;;;;;;;;;5008698;28;20026;-58
2022/06/27 03:02:09;;;;;;;;;;;;;;;;;;5006556;28;20038;-59
2022/06/27 03:04:44;;;;;;;3.17;1.60;;;;;;;;;;5027269;28;19988;-58
2022/06/27 03:10:29;;;;;;;3.90;1.17;;;;;;;;;;5044586;28;20022;-58
2022/06/27 03:13:14;;;;;;;2.22;1.35;;;;;;;;;;5027720;28;20025;-55
2022/06/27 03:15:41;;;;;;;2.80;2.20;;;;;;;;;;5044918;28;20053;-57
2022/06/27 03:18:08;;;;;;;3.45;2.30;;;;;;;;;;5045491;28;20025;-58
2022/06/27 03:20:47;;;;;;;3.75;2.35;;;;;;;;;;5027942;28;20057;-58
2022/06/27 03:26:31;;;;;;;4.97;2.08;;;;;;;;;;5030153;28;20040;-58
2022/06/27 03:29:23;;;;;;;3.58;2.60;;;;;;;;;;5036780;28;20037;-58
2022/06/27 03:35:00;;;;;;;4.15;2.47;;;;;;;;;;5032602;28;20113;-58
2022/06/27 03:37:55;;;;;;;5.13;2.28;;;;;;;;;;5035129;28;20034;-58
2022/06/27 03:40:53;;;;;;;6.38;2.92;;;;;;;;;;5029185;28;20030;-59
2022/06/27 03:43:31;;;;;;;6.07;2.35;;;;;;;;;;5016429;28;20025;-58
2022/06/27 03:55:02;;;;;;;3.60;2.53;;;;;;;;;;5019694;28;20033;-58
2022/06/27 03:57:53;;;;;;;4.38;2.72;;;;;;;;;;5035142;28;20506;-58
2022/06/27 04:00:47;;;;;;;2.75;1.95;;;;;;;;;;5025155;28;20094;-59
2022/06/27 04:06:27;;;;;;;3.25;2.80;;;;;;;;;;5034053;28;20060;-58
2022/06/27 04:09:11;;;;;;;6.88;2.88;;;;;;;;;;5034953;28;20032;-58
2022/06/27 04:12:19;;;;;;;4.00;2.25;;;;;;;;;;5011076;28;20068;-58
2022/06/27 04:15:06;;;;;;;3.15;1.90;;;;;;;;;;4972817;28;20091;-59
2022/06/27 04:17:47;;;;;;;5.90;3.30;;;;;;;;;;4973350;28;20104;-58
2022/06/27 04:20:28;;;;;;;3.72;2.70;;;;;;;;;;5018131;28;20135;-58
2022/06/27 04:23:06;;;;;;;3.65;2.38;;;;;;;;;;5011880;28;20120;-58
2022/06/27 04:25:58;;;;;;;2.88;1.77;;;;;;;;;;5034304;28;20355;-58
2022/06/27 04:31:41;;;;;;;;;;;;;;;;;;;;;
2022/06/27 04:34:28;;;;;;;4.88;2.13;;;;;;;;;;5033836;28;20120;-59
2022/06/27 04:37:03;;;;;;;2.78;1.77;;;;;;;;;;5034502;28;20025;-58
2022/06/27 04:43:22;;;;;;;4.35;1.83;;;;;;;;;;4992088;28;20595;-58
2022/06/27 04:45:57;;;;;;;7.72;2.08;;;;;;;;;;5032475;28;20080;-58
2022/06/27 04:48:44;;;;;;;2.55;1.13;;;;;;;;;;5034309;28;20451;-58
2022/06/27 04:51:25;;;;;;;2.10;1.45;;;;;;;;;;5034759;28;20081;-58
2022/06/27 04:54:31;;;;;;;2.72;1.35;;;;;;;;;;5033847;28;20486;-58
2022/06/27 05:00:19;;;;;;;4.32;2.40;;;;;;;;;;5034546;28;20475;-59
2022/06/27 05:03:23;;;;;;;4.15;2.20;;;;;;;;;;5016395;28;20116;-58
2022/06/27 05:06:08;;;;;;;4.13;2.08;;;;;;;;;;5033860;28;20060;-58
2022/06/27 05:08:54;;;;;;;;;;;;;;;;;;;;;
2022/06/27 05:11:39;;;;;;;3.55;2.13;;;;;;;;;;5033870;28;20427;-59
2022/06/27 05:14:24;;;;;;;4.65;2.03;;;;;;;;;;5034226;28;20052;-58
2022/06/27 05:17:15;;;;;;;5.00;1.73;;;;;;;;;;5036316;28;20029;-58
2022/06/27 05:19:44;;;;;;;;;;;;;;;;;;5007012;28;20449;-58
2022/06/27 05:22:32;;;;;;;2.83;1.73;;;;;;;;;;5015238;28;19912;-58
2022/06/27 05:25:15;;;;;;;4.35;1.50;;;;;;;;;;5015282;28;20503;-58
2022/06/27 05:30:54;;;;;;;1.63;1.10;;;;;;;;;;5030772;28;20082;-58
2022/06/27 05:34:01;;;;;;;10.13;1.02;;;;;;;;;;5022627;28;20038;-58
2022/06/27 05:36:37;;;;;;;;;;;;;;;;;;;;;
2022/06/27 05:42:29;;;;;;;2.53;1.08;;;;;;;;;;5018944;28;20167;-58
2022/06/27 05:45:31;;;;;;;;;;;;;;;;;;;;;
2022/06/27 05:48:19;;;;;;;4.05;1.42;;;;;;;;;;5028454;28;20045;-59
2022/06/27 05:51:08;;;;;;;1.67;1.00;;;;;;;;;;5036254;28;20085;-58
2022/06/27 05:53:58;;;;;;;5.40;1.50;;;;;;;;;;5018516;28;20436;-58
2022/06/27 05:56:38;;;;;;;1.63;1.08;;;;;;;;;;5036463;28;20451;-58
2022/06/27 05:59:34;;;;;;;2.92;1.42;;;;;;;;;;5018682;28;20471;-59
2022/06/27 06:05:32;;;;;;;2.35;1.58;;;;;;;;;;4990053;28;20033;-57
2022/06/27 06:08:25;;;;;;;3.40;1.70;;;;;;;;;;5036706;28;20036;-58
2022/06/27 06:11:04;;;;;;;3.03;1.65;;;;;;;;;;5017361;28;20037;-56
2022/06/27 06:13:30;;;;;;;1.98;1.15;;;;;;;;;;5032032;28;20025;-58
2022/06/27 06:18:59;;;;;;;2.63;1.30;;;;;;;;;;4994010;28;20037;-58
2022/06/27 06:22:05;;;;;;;;;;;;;;;;;;;;;
2022/06/27 06:24:50;;;;;;;5.53;1.30;;;;;;;;;;5035089;28;20483;-58
2022/06/27 06:27:35;;;;;;;2.75;1.10;;;;;;;;;;5036170;28;20049;-58
2022/06/27 06:30:20;;;;;;;;;;;;;;;;;;;;;
2022/06/27 06:33:06;;;;;;;2.13;0.98;;;;;;;;;;5036280;28;20140;-58
2022/06/27 06:38:57;;;;;;;1.88;0.90;;;;;;;;;;4994253;28;20059;-58
2022/06/27 06:41:50;;;;;;;2.30;1.20;;;;;;;;;;5026974;28;20029;-59
2022/06/27 06:44:48;;;;;;;;;;;;;;;;;;;;;
2022/06/27 06:53:26;;;;;;;2.70;0.98;;;;;;;;;;5036159;28;20032;-59
2022/06/27 06:56:00;;;;;;;2.22;1.23;;;;;;;;;;5018360;28;20052;-58
2022/06/27 06:58:39;;;;;;;3.22;0.93;;;;;;;;;;5036850;28;20029;-58
2022/06/27 07:07:37;;;;;;;0.98;0.63;;;;;;;;;;5007293;28;20034;-58
2022/06/27 07:10:16;;;;;;;2.50;0.93;;;;;;;;;;5018519;28;20045;-58
2022/06/27 07:12:54;;;;;;;2.13;0.70;;;;;;;;;;5036622;28;20125;-59
2022/06/27 07:15:35;;;;;;;1.95;0.90;;;;;;;;;;5019203;28;20044;-58
2022/06/27 07:18:46;;;;;;;1.60;0.68;;;;;;;;;;5036563;28;20060;-59
2022/06/27 07:21:40;;;;;;;2.53;1.13;;;;;;;;;;5020612;28;20052;-59
2022/06/27 07:24:36;;;;;;;4.40;1.25;;;;;;;;;;5018435;28;20021;-59
2022/06/27 07:27:20;;;;;;;5.63;1.02;;;;;;;;;;5028999;28;20045;-58
2022/06/27 07:30:09;;;;;;;1.83;0.90;;;;;;;;;;5039067;28;20084;-58
2022/06/27 07:38:51;;;;;;;2.33;0.95;;;;;;;;;;5029016;28;20065;-58
2022/06/27 07:42:09;;;;;;;1.83;0.75;;;;;;;;;;5035152;28;20524;-58
2022/06/27 07:44:39;;;;;;;5.18;0.88;;;;;;;;;;5017549;28;20537;-58
2022/06/27 07:51:00;;;;;;;1.58;0.65;;;;;;;;;;4973273;28;20089;-58
2022/06/27 07:54:06;;;;;;;1.60;0.70;;;;;;;;;;4973897;28;20026;-58
2022/06/27 08:00:20;;;;;;;0.85;0.45;;;;;;;;;;4993058;28;20062;-58
2022/06/27 08:06:02;;;;;;;1.83;0.90;;;;;;;;;;4934959;29;20159;-58
2022/06/27 08:12:10;;;;;;;2.17;0.70;;;;;;;;;;4939528;28;20043;-58
2022/06/27 08:15:11;;;;;;;1.63;0.95;;;;;;;;;;4934972;29;20140;-58
2022/06/27 08:17:58;;;;;;;1.80;0.70;;;;;;;;;;4934493;29;20199;-58
2022/06/27 08:23:27;;;;;;;5.82;1.13;;;;;;;;;;5034804;28;20532;-58
2022/06/27 08:26:08;;;;;;;0.98;0.60;;;;;;;;;;5016833;28;20029;-58
2022/06/27 08:29:03;;;;;;;1.30;0.70;;;;;;;;;;5016250;28;20406;-58
2022/06/27 08:31:38;;;;;;;1.38;0.70;;;;;;;;;;5028627;28;20041;-58
2022/06/27 08:34:21;;;;;;;1.33;0.60;;;;;;;;;;5016557;28;20029;-58
2022/06/27 08:43:08;;;;;;;1.35;0.60;;;;;;;;;;5011380;28;20033;-58
2022/06/27 08:45:57;;;;;;;;;;;;;;;;;;;;;
2022/06/27 08:48:49;;;;;;;2.30;0.65;;;;;;;;;;5032385;28;20116;-59
2022/06/27 08:55:01;;;;;;;0.90;0.40;;;;;;;;;;4975634;28;20098;-58
2022/06/27 08:57:39;;;;;;;1.20;0.50;;;;;;;;;;4989388;28;20137;-59
2022/06/27 09:00:27;;;;;;;2.45;0.77;;;;;;;;;;4992358;28;20037;-58
2022/06/27 09:06:29;;;;;;;0.88;0.60;;;;;;;;;;4992318;28;20030;-58
2022/06/27 09:09:15;;;;;;;1.40;0.70;;;;;;;;;;4915748;29;20480;-59
2022/06/27 09:11:46;;;;;;;2.78;0.82;;;;;;;;;;4930994;29;20078;-58
2022/06/27 09:14:31;;;;;;;1.25;0.63;;;;;;;;;;4963167;28;20420;-58
2022/06/27 09:20:14;;;;;;;1.17;0.60;;;;;;;;;;5038024;28;20053;-59
2022/06/27 09:22:50;;;;;;;2.13;0.50;;;;;;;;;;5038995;28;20020;-58
2022/06/27 09:28:32;;;;;;;1.90;0.73;;;;;;;;;;4999642;28;20058;-58
2022/06/27 09:31:09;;;;;;;1.10;0.50;;;;;;;;;;4957211;28;20042;-58
2022/06/27 09:36:49;;;;;;;1.85;0.98;;;;;;;;;;5012490;28;20364;-58
2022/06/27 09:39:27;;;;;;;2.78;0.75;;;;;;;;;;5019496;28;20034;-58
2022/06/27 09:42:25;;;;;;;2.33;1.17;;;;;;;;;;5005813;28;20018;-59
2022/06/27 09:57:12;;;;;;;1.48;0.90;;;;;;;;;;5013950;28;20514;-59
2022/06/27 09:59:53;;;;;;;2.17;1.27;;;;;;;;;;5016934;28;20472;-59
2022/06/27 10:02:45;;;;;;;1.77;1.13;;;;;;;;;;5015091;28;20034;-58
2022/06/27 10:05:52;;;;;;;1.73;0.98;;;;;;;;;;5016156;28;20467;-58
2022/06/27 10:08:31;;;;;;;1.90;1.15;;;;;;;;;;5011118;28;20121;-59
2022/06/27 10:11:23;;;;;;;3.90;1.10;;;;;;;;;;5016737;28;20423;-59
2022/06/27 10:17:07;;;;;;;3.97;0.88;;;;;;;;;;4993286;28;20045;-59
2022/06/27 10:20:00;;;;;;;2.03;1.05;;;;;;;;;;5016678;28;20076;-59
2022/06/27 10:26:05;;;;;;;2.40;0.80;;;;;;;;;;5015581;28;20034;-58
2022/06/27 10:28:56;;;;;;;;;;;;;;;;;;;;;
2022/06/27 10:31:49;;;;;;;3.13;1.33;;;;;;;;;;5024604;28;20041;-59
2022/06/27 10:40:47;;;;;;;3.78;1.30;;;;;;;;;;4994788;28;20077;-58
2022/06/27 10:46:57;;;;;;;2.22;1.38;;;;;;;;;;5009815;28;20033;-58
2022/06/27 10:52:59;;;;;;;;;;;;;;;;;;;;;
2022/06/27 10:55:38;;;;;;;4.82;1.77;;;;;;;;;;5023076;28;20021;-58
2022/06/27 10:58:33;;;;;;;2.42;1.45;;;;;;;;;;5035869;28;20030;-58
2022/06/27 11:01:34;;;;;;;3.30;1.65;;;;;;;;;;5017940;28;20026;-59
2022/06/27 11:04:20;;;;;;;2.15;1.55;;;;;;;;;;5004083;28;20038;-59
2022/06/27 11:07:08;;;;;;;2.33;1.65;;;;;;;;;;5034699;28;20038;-59
2022/06/27 11:13:26;;;;;;;2.03;1.30;;;;;;;;;;4994107;28;20042;-58
2022/06/27 11:16:08;;;;;;;2.45;1.33;;;;;;;;;;4977521;28;20393;-58
2022/06/27 11:18:58;;;;;;;2.60;1.35;;;;;;;;;;4977722;28;20030;-59
2022/06/27 11:21:33;;;;;;;;;;;;;;;;;;4995308;28;20046;-58
2022/06/27 11:24:23;;;;;;;3.15;1.83;;;;;;;;;;4993964;28;19944;-59
2022/06/27 11:32:56;;;;;;;2.20;1.70;;;;;;;;;;4975259;28;20042;-59
2022/06/27 11:38:49;;;;;;;9.27;1.87;;;;;;;;;;4993589;28;20357;-58
2022/06/27 11:41:29;;;;;;;;;;;;;;;;;;;;;
2022/06/27 11:44:21;;;;;;;4.40;1.70;;;;;;;;;;4999238;28;20121;-59
2022/06/27 11:47:14;;;;;;;2.63;1.73;;;;;;;;;;5000308;28;20121;-59
2022/06/27 11:50:03;;;;;;;4.60;1.90;;;;;;;;;;5012828;28;20074;-59
2022/06/27 11:59:04;;;;;;;2.10;1.25;;;;;;;;;;4991222;28;20034;-58
2022/06/27 12:07:56;;;;;;;2.90;1.58;;;;;;;;;;5000746;28;20088;-58
2022/06/27 12:10:50;;;;;;;;;;;;;;;;;;;;;
2022/06/27 12:16:43;;;;;;;4.63;2.00;;;;;;;;;;5008944;28;20076;-58
2022/06/27 12:25:35;;;;;;;3.17;1.45;;;;;;;;;;5006505;28;20092;-57
2022/06/27 12:28:32;;;;;;;2.22;1.30;;;;;;;;;;5018772;28;20054;-58
2022/06/27 12:31:27;;;;;;;3.22;1.70;;;;;;;;;;5029942;28;20091;-57
2022/06/27 12:34:19;;;;;;;2.78;1.60;;;;;;;;;;5034194;28;20037;-58
2022/06/27 12:37:03;;;;;;;4.80;1.65;;;;;;;;;;5028015;28;20132;-58
2022/06/27 12:40:04;;;;;;;1.60;1.25;;;;;;;;;;5010645;28;20375;-58
2022/06/27 12:42:40;;;;;;;2.42;1.60;;;;;;;;;;4973504;28;20039;-58
2022/06/27 12:45:24;;;;;;;2.78;1.80;;;;;;;;;;4986370;28;20029;-57
2022/06/27 12:48:05;;;;;;;2.80;2.10;;;;;;;;;;5016706;28;20383;-58
2022/06/27 12:50:45;;;;;;;2.60;1.85;;;;;;;;;;5041686;28;20030;-57
2022/06/27 12:53:17;;;;;;;2.50;1.70;;;;;;;;;;5024603;28;20037;-58
2022/06/27 12:55:52;;;;;;;2.70;1.92;;;;;;;;;;5041150;28;20025;-58
2022/06/27 13:01:17;;;;;;;4.70;1.67;;;;;;;;;;5033389;28;20033;-58
2022/06/27 13:04:09;;;;;;;2.30;1.70;;;;;;;;;;5007707;28;20502;-58
2022/06/27 13:06:55;;;;;;;2.63;1.60;;;;;;;;;;5041291;28;20033;-58
2022/06/27 13:12:36;;;;;;;2.42;1.35;;;;;;;;;;5020545;28;20041;-58
2022/06/27 13:15:33;;;;;;;2.28;1.50;;;;;;;;;;5040623;28;20037;-57
2022/06/27 13:18:31;;;;;;;3.70;2.13;;;;;;;;;;5041443;28;20117;-57
2022/06/27 13:21:16;;;;;;;3.35;2.00;;;;;;;;;;5006016;28;20042;-58
2022/06/27 13:23:54;;;;;;;2.55;1.65;;;;;;;;;;5041024;28;20111;-58
2022/06/27 13:26:29;;;;;;;3.38;1.70;;;;;;;;;;5040950;28;20031;-57
2022/06/27 13:28:59;;;;;;;2.80;2.03;;;;;;;;;;5018916;28;20471;-58
2022/06/27 13:34:30;;;;;;;2.50;1.23;;;;;;;;;;5040644;28;20395;-58
2022/06/27 13:43:37;;;;;;;1.67;1.15;;;;;;;;;;5038962;28;20041;-56
2022/06/27 13:46:24;;;;;;;2.78;1.45;;;;;;;;;;5040845;28;20029;-58
2022/06/27 13:55:00;;;;;;;2.05;1.30;;;;;;;;;;5024474;28;20053;-58
2022/06/27 13:57:32;;;;;;;3.10;1.10;;;;;;;;;;5022981;28;20033;-58
2022/06/27 14:03:35;;;;;;;2.70;1.05;;;;;;;;;;5024965;28;20049;-58
2022/06/27 14:09:12;;;;;;;2.45;1.50;;;;;;;;;;5033643;28;20040;-58
2022/06/27 14:11:56;;;;;;;2.00;1.38;;;;;;;;;;5019615;28;20026;-58
2022/06/27 14:14:33;;;;;;;3.67;1.33;;;;;;;;;;5019255;28;20467;-58
2022/06/27 14:17:13;;;;;;;1.70;1.00;;;;;;;;;;5036847;28;20132;-58
2022/06/27 14:22:49;;;;;;;1.63;1.00;;;;;;;;;;5036542;28;20006;-58
2022/06/27 14:28:41;;;;;;;1.95;1.20;;;;;;;;;;5029015;28;20032;-58
2022/06/27 14:31:47;;;;;;;;;;;;;;;;;;;;;
2022/06/27 14:34:24;;;;;;;2.40;1.55;;;;;;;;;;5016975;28;20383;-58
2022/06/27 14:37:15;;;;;;;;;;;;;;;;;;;;;
2022/06/27 14:42:55;;;;;;;2.00;1.23;;;;;;;;;;5015243;28;20026;-58
2022/06/27 14:45:37;;;;;;;1.95;1.20;;;;;;;;;;4997526;28;20491;-58
2022/06/27 14:48:30;;;;;;;3.28;1.52;;;;;;;;;;4989425;28;20037;-62
2022/06/27 14:51:05;;;;;;;2.30;1.00;;;;;;;;;;5012306;28;20407;-57
2022/06/27 14:54:00;;;;;;;3.88;1.27;;;;;;;;;;5016748;28;20038;-58
2022/06/27 14:56:38;;;;;;;3.45;1.67;;;;;;;;;;5012957;28;20491;-58
2022/06/27 14:59:14;;;;;;;2.65;1.35;;;;;;;;;;5014383;28;20030;-58
2022/06/27 15:02:21;;;;;;;1.95;1.13;;;;;;;;;;5028106;28;20042;-58
2022/06/27 15:04:57;;;;;;;3.70;1.15;;;;;;;;;;4974447;28;20476;-58
2022/06/27 15:07:26;;;;;;;2.00;1.30;;;;;;;;;;4975564;28;20049;-58
2022/06/27 15:10:17;;;;;;;2.38;1.63;;;;;;;;;;4969288;28;20504;-58
2022/06/27 15:19:22;;;;;;;;;;;;;;;;;;;;;
2022/06/27 15:22:10;;;;;;;;;;;;;;;;;;;;;
2022/06/27 15:34:08;;;;;;;4.30;1.60;;;;;;;;;;5035359;28;20459;-58
2022/06/27 15:39:40;;;;;;;2.50;1.10;;;;;;;;;;4989211;28;20030;-58
2022/06/27 15:45:55;;;;;;;1.83;1.17;;;;;;;;;;4971806;28;20106;-58
2022/06/27 15:51:40;;;;;;;2.40;1.67;;;;;;;;;;4989944;28;20066;-58
2022/06/27 15:54:29;;;;;;;2.65;1.88;;;;;;;;;;5008254;28;20054;-58
2022/06/27 15:57:08;;;;;;;2.28;1.63;;;;;;;;;;4990809;28;20038;-58
2022/06/27 15:59:59;;;;;;;3.05;1.48;;;;;;;;;;5008791;28;20026;-58
2022/06/27 16:02:25;;;;;;;2.10;1.40;;;;;;;;;;4935181;29;20042;-58
2022/06/27 16:05:13;;;;;;;2.50;1.55;;;;;;;;;;4951071;29;20058;-58
2022/06/27 16:08:05;;;;;;;2.33;1.40;;;;;;;;;;4958533;28;20039;-58
2022/06/27 16:10:54;;;;;;;2.85;2.17;;;;;;;;;;4974642;28;20094;-59
2022/06/27 16:13:29;;;;;;;2.50;1.67;;;;;;;;;;4966765;28;20031;-58
2022/06/27 16:16:19;;;;;;;2.58;1.65;;;;;;;;;;4978602;28;20042;-58
2022/06/27 16:22:00;;;;;;;2.67;1.83;;;;;;;;;;4958250;28;20444;-58
2022/06/27 16:24:34;;;;;;;2.78;2.00;;;;;;;;;;4954039;28;20038;-58
2022/06/27 16:27:27;;;;;;;2.85;2.47;;;;;;;;;;4957866;28;20073;-58
2022/06/27 16:36:35;;;;;;;;;;;;;;;;;;;;;
2022/06/27 16:39:14;;;;;;;;;;;;;;;;;;;;;
2022/06/27 16:47:47;;;;;;;3.40;2.53;;;;;;;;;;5013585;28;20034;-58
2022/06/27 16:53:54;;;;;;;2.60;2.15;;;;;;;;;;4967808;28;20129;-58
2022/06/27 16:56:27;;;;;;;6.00;2.72;;;;;;;;;;4965986;28;20057;-58
2022/06/27 16:58:53;;;;;;;7.45;2.90;;;;;;;;;;4995077;28;20034;-58
2022/06/27 17:01:55;;;;;;;7.35;2.70;;;;;;;;;;5014119;28;20052;-58
2022/06/27 17:04:57;;;;;;;;;;;;;;;;;;;;;
2022/06/27 17:07:38;;;;;;;4.38;2.20;;;;;;;;;;5006129;28;20046;-58
2022/06/27 17:10:32;;;;;;;;;;;;;;;;;;;;;
2022/06/27 17:13:08;;;;;;;2.90;2.30;;;;;;;;;;5014357;28;20007;-59
2022/06/27 17:16:02;;;;;;;5.05;2.05;;;;;;;;;;4996294;28;20029;-59
2022/06/27 17:18:28;;;;;;;6.55;2.72;;;;;;;;;;5014867;28;20034;-58
2022/06/27 17:21:29;;;;;;;;;;;;;;;;;;;;;
2022/06/27 17:24:14;;;;;;;;;;;;;;;;;;;;;
2022/06/27 17:26:43;;;;;;;3.22;2.55;;;;;;;;;;5014128;28;20450;-58
2022/06/27 17:29:35;;;;;;;3.30;2.97;;;;;;;;;;5016683;28;20572;-59
2022/06/27 17:32:23;;;;;;;3.80;3.15;;;;;;;;;;5034040;28;20120;-58
2022/06/27 17:40:54;;;;;;;3.47;2.53;;;;;;;;;;5036925;28;20063;-59
2022/06/27 17:43:44;;;;;;;3.10;2.38;;;;;;;;;;5038103;28;20105;-58
2022/06/27 17:46:16;;;;;;;4.05;2.65;;;;;;;;;;5019638;28;20491;-59
2022/06/27 17:48:48;;;;;;;3.28;2.83;;;;;;;;;;5038208;28;20021;-58
2022/06/27 17:51:35;;;;;;;3.20;2.67;;;;;;;;;;5038377;28;20022;-58
2022/06/27 17:54:29;;;;;;;3.83;2.75;;;;;;;;;;5019274;28;20512;-58
2022/06/27 17:57:22;;;;;;;5.90;2.70;;;;;;;;;;5038281;28;20470;-58
2022/06/27 18:00:09;;;;;;;2.95;2.33;;;;;;;;;;5037188;28;20026;-58
2022/06/27 18:02:52;;;;;;;3.80;2.15;;;;;;;;;;5035139;28;20044;-58
2022/06/27 18:05:59;;;;;;;;;;;;;;;;;;;;;
2022/06/27 18:08:39;;;;;;;2.92;2.28;;;;;;;;;;5011643;28;20032;-58
2022/06/27 18:14:23;;;;;;;6.28;2.47;;;;;;;;;;5037442;28;20040;-58
2022/06/27 18:17:08;;;;;;;3.40;2.33;;;;;;;;;;5007899;28;20498;-58
2022/06/27 18:20:22;;;;;;;3.08;2.42;;;;;;;;;;5034852;28;20033;-58
2022/06/27 18:23:03;;;;;;;2.85;2.40;;;;;;;;;;4978128;28;20041;-58
2022/06/27 18:25:39;;;;;;;2.38;1.92;;;;;;;;;;4977551;28;20025;-58
2022/06/27 18:28:42;;;;;;;3.42;2.10;;;;;;;;;;4979273;28;20046;-58
2022/06/27 18:31:42;;;;;;;2.67;2.25;;;;;;;;;;4972127;28;20058;-58
2022/06/27 18:34:17;;;;;;;2.65;2.17;;;;;;;;;;5007625;28;20095;-58
2022/06/27 18:36:52;;;;;;;3.33;2.75;;;;;;;;;;5019081;28;20480;-58
2022/06/27 18:39:32;;;;;;;3.28;2.53;;;;;;;;;;5036450;28;20033;-58
2022/06/27 18:42:01;;;;;;;4.47;3.17;;;;;;;;;;5018489;28;20053;-58
2022/06/27 18:44:49;;;;;;;7.18;3.15;;;;;;;;;;5035560;28;20033;-58
2022/06/27 18:47:27;;;;;;;4.60;3.22;;;;;;;;;;5036459;28;20048;-58
2022/06/27 18:53:29;;;;;;;3.85;3.08;;;;;;;;;;5036372;28;20498;-58
2022/06/27 18:56:01;;;;;;;5.00;3.10;;;;;;;;;;4974750;28;20062;-58
2022/06/27 18:59:05;;;;;;;4.28;3.47;;;;;;;;;;4968209;28;20039;-58
2022/06/27 19:04:45;;;;;;;4.07;3.13;;;;;;;;;;5033163;28;20034;-58
2022/06/27 19:07:26;;;;;;;4.28;3.33;;;;;;;;;;5035164;28;20057;-58
2022/06/27 19:13:15;;;;;;;;;;;;;;;;;;;;;
2022/06/27 19:15:58;;;;;;;;;;;;;;;;;;;;;
2022/06/27 19:18:32;;;;;;;4.85;3.72;;;;;;;;;;5025082;28;20041;-58
2022/06/27 19:21:14;;;;;;;;;;;;;;;;;;;;;
2022/06/27 19:30:12;;;;;;;5.28;4.22;;;;;;;;;;5031187;28;20045;-58
2022/06/27 19:32:59;;;;;;;4.20;3.67;;;;;;;;;;5017710;28;20037;-58
2022/06/27 19:35:42;;;;;;;5.05;3.47;;;;;;;;;;4974770;28;20039;-58
2022/06/27 19:38:38;;;;;;;6.55;3.85;;;;;;;;;;4964038;28;20035;-58
2022/06/27 19:41:15;;;;;;;4.22;3.40;;;;;;;;;;5024488;28;20022;-58
2022/06/27 19:44:03;;;;;;;4.78;3.97;;;;;;;;;;5017209;28;20063;-58
2022/06/27 19:46:54;;;;;;;5.20;3.85;;;;;;;;;;5035951;28;20025;-58
2022/06/27 19:49:38;;;;;;;4.65;3.95;;;;;;;;;;5032406;28;20486;-58
2022/06/27 19:52:43;;;;;;;4.60;3.90;;;;;;;;;;5035984;28;20359;-58
2022/06/27 19:55:55;;;;;;;4.57;3.92;;;;;;;;;;5034827;28;20029;-57
2022/06/27 20:01:38;;;;;;;7.18;3.97;;;;;;;;;;5035036;28;20036;-58
2022/06/27 20:04:07;;;;;;;4.40;4.00;;;;;;;;;;5031077;28;20364;-57
2022/06/27 20:06:41;;;;;;;4.85;3.70;;;;;;;;;;5028756;28;20534;-58
2022/06/27 20:12:31;;;;;;;4.32;3.33;;;;;;;;;;4974252;28;20034;-58
2022/06/27 20:15:21;;;;;;;3.97;3.42;;;;;;;;;;4973531;28;20530;-58
2022/06/27 20:20:55;;;;;;;6.05;3.90;;;;;;;;;;4968048;28;20322;-59
2022/06/27 20:23:37;;;;;;;4.85;3.22;;;;;;;;;;5035916;28;20029;-58
2022/06/27 20:26:22;;;;;;;3.83;3.38;;;;;;;;;;5017085;28;20041;-58
2022/06/27 20:29:26;;;;;;;4.32;2.90;;;;;;;;;;5017788;28;20426;-58
2022/06/27 20:32:05;;;;;;;5.90;3.47;;;;;;;;;;5002073;28;20045;-58
2022/06/27 20:34:56;;;;;;;3.90;3.50;;;;;;;;;;5035489;28;20391;-58
2022/06/27 20:37:34;;;;;;;4.22;3.40;;;;;;;;;;5015332;28;20034;-58
2022/06/27 20:40:23;;;;;;;4.30;3.15;;;;;;;;;;4998498;28;20037;-58
2022/06/27 20:52:15;;;;;;;4.63;3.20;;;;;;;;;;5031315;28;20063;-58
2022/06/27 20:58:03;;;;;;;4.32;2.83;;;;;;;;;;5030791;28;20430;-58
2022/06/27 21:00:46;;;;;;;3.72;3.10;;;;;;;;;;5049487;28;20479;-58
2022/06/27 21:03:24;;;;;;;5.70;2.17;;;;;;;;;;5043621;28;20040;-58
2022/06/27 21:05:57;;;;;;;2.95;1.95;;;;;;;;;;5060186;28;20107;-57
2022/06/27 21:18:01;;;;;;;3.10;1.58;;;;;;;;;;5050028;28;20037;-58
2022/06/27 21:20:35;;;;;;;3.05;1.63;;;;;;;;;;5043982;28;20037;-58
2022/06/27 21:23:10;;;;;;;3.40;1.92;;;;;;;;;;5050227;28;20029;-58
2022/06/27 21:26:05;;;;;;;2.40;1.45;;;;;;;;;;5046816;28;20064;-58
2022/06/27 21:28:51;;;;;;;2.35;1.65;;;;;;;;;;5049657;28;20029;-58
2022/06/27 21:31:47;;;;;;;1.70;1.08;;;;;;;;;;5040092;28;20060;-58
2022/06/27 21:34:28;;;;;;;1.88;1.15;;;;;;;;;;5051219;28;20085;-58
2022/06/27 21:37:28;;;;;;;1.70;1.20;;;;;;;;;;5050024;28;20029;-58
2022/06/27 21:40:14;;;;;;;3.17;1.65;;;;;;;;;;5049204;28;20030;-58
2022/06/27 21:43:18;;;;;;;3.92;1.70;;;;;;;;;;5039040;28;20037;-58
2022/06/27 21:48:50;;;;;;;1.35;0.77;;;;;;;;;;5049757;28;20512;-58
2022/06/27 21:52:39;;;;;;;2.10;0.95;;;;;;;;;;5031675;28;20048;-58
2022/06/27 21:58:06;;;;;;;2.50;1.35;;;;;;;;;;5049660;28;20044;-58
2022/06/27 22:00:59;;;;;;;1.50;1.00;;;;;;;;;;5048593;28;20094;-58
2022/06/27 22:03:49;;;;;;;1.85;1.05;;;;;;;;;;5050516;28;20018;-58
2022/06/27 22:09:43;;;;;;;2.05;1.25;;;;;;;;;;5049651;28;20072;-58
2022/06/27 22:12:28;;;;;;;4.75;1.95;;;;;;;;;;5032224;28;20060;-58
2022/06/27 22:15:36;;;;;;;;;;;;;;;;;;;;;
2022/06/27 22:18:21;;;;;;;2.10;1.05;;;;;;;;;;5044728;28;20060;-58
2022/06/27 22:21:08;;;;;;;1.27;0.90;;;;;;;;;;5045639;28;20061;-58
2022/06/27 22:23:54;;;;;;;4.30;1.63;;;;;;;;;;5038273;28;20088;-58
2022/06/27 22:29:39;;;;;;;;;;;;;;;;;;;;;
2022/06/27 22:32:36;;;;;;;1.70;1.13;;;;;;;;;;5042234;28;20077;-56
2022/06/27 22:35:15;;;;;;;4.65;1.42;;;;;;;;;;5048843;28;20040;-58
2022/06/27 22:37:57;;;;;;;3.40;1.40;;;;;;;;;;5048714;28;20037;-58
2022/06/27 22:40:51;;;;;;;2.70;1.30;;;;;;;;;;5048446;28;20056;-58
2022/06/27 22:46:57;;;;;;;1.70;1.17;;;;;;;;;;5028272;28;20041;-58
2022/06/27 22:52:13;;;;;;;2.20;1.40;;;;;;;;;;5040776;28;20030;-58
2022/06/27 22:58:23;;;;;;;1.88;1.02;;;;;;;;;;5006640;28;20042;-58
2022/06/27 23:00:50;;;;;;;2.55;1.33;;;;;;;;;;5004850;28;20030;-58
2022/06/27 23:09:46;;;;;;;2.67;1.90;;;;;;;;;;4985428;28;20031;-58
2022/06/27 23:18:42;;;;;;;2.05;1.45;;;;;;;;;;4948384;29;20043;-58
2022/06/27 23:24:21;;;;;;;7.88;1.95;;;;;;;;;;5010411;28;20069;-58
2022/06/27 23:27:06;;;;;;;2.53;1.60;;;;;;;;;;5048198;28;20034;-58